sensor_id;sensor_type;location;lat;lon;timestamp;P1;durP1;ratioP1;P2;durP2;ratioP2
51556;SDS011;38766;53.194;5.532;2023-05-08T00:00:38;18.17;;;15.48;;
51556;SDS011;38766;53.194;5.532;2023-05-08T00:03:04;19.58;;;16.83;;
51556;SDS011;38766;53.194;5.532;2023-05-08T00:05:29;18.77;;;16.52;;
51556;SDS011;38766;53.194;5.532;2023-05-08T00:07:55;18.02;;;16.13;;
51556;SDS011;38766;53.194;5.532;2023-05-08T00:10:25;21.23;;;17.10;;
51556;SDS011;38766;53.194;5.532;2023-05-08T00:12:52;18.05;;;16.13;;
51556;SDS011;38766;53.194;5.532;2023-05-08T00:15:19;19.73;;;17.23;;
51556;SDS011;38766;53.194;5.532;2023-05-08T00:17:44;18.38;;;16.50;;
51556;SDS011;38766;53.194;5.532;2023-05-08T00:20:10;18.50;;;16.50;;
51556;SDS011;38766;53.194;5.532;2023-05-08T00:22:36;18.30;;;16.40;;
51556;SDS011;38766;53.194;5.532;2023-05-08T00:25:02;19.83;;;16.83;;
51556;SDS011;38766;53.194;5.532;2023-05-08T00:27:29;18.02;;;16.13;;
51556;SDS011;38766;53.194;5.532;2023-05-08T00:29:55;19.20;;;16.35;;
51556;SDS011;38766;53.194;5.532;2023-05-08T00:32:22;18.88;;;16.88;;
51556;SDS011;38766;53.194;5.532;2023-05-08T00:34:48;17.85;;;16.02;;
51556;SDS011;38766;53.194;5.532;2023-05-08T00:37:13;19.10;;;17.08;;
51556;SDS011;38766;53.194;5.532;2023-05-08T00:39:39;18.77;;;16.77;;
51556;SDS011;38766;53.194;5.532;2023-05-08T00:42:05;17.92;;;16.02;;
51556;SDS011;38766;53.194;5.532;2023-05-08T00:44:30;17.85;;;15.95;;
51556;SDS011;38766;53.194;5.532;2023-05-08T00:46:56;18.77;;;16.80;;
51556;SDS011;38766;53.194;5.532;2023-05-08T00:49:22;18.20;;;16.30;;
51556;SDS011;38766;53.194;5.532;2023-05-08T00:51:48;19.63;;;16.55;;
51556;SDS011;38766;53.194;5.532;2023-05-08T00:54:16;17.23;;;15.40;;
51556;SDS011;38766;53.194;5.532;2023-05-08T00:56:43;18.65;;;16.35;;
51556;SDS011;38766;53.194;5.532;2023-05-08T00:59:10;17.67;;;15.80;;
51556;SDS011;38766;53.194;5.532;2023-05-08T01:01:38;18.33;;;16.42;;
51556;SDS011;38766;53.194;5.532;2023-05-08T01:04:05;20.00;;;16.48;;
51556;SDS011;38766;53.194;5.532;2023-05-08T01:06:31;20.73;;;17.17;;
51556;SDS011;38766;53.194;5.532;2023-05-08T01:08:58;18.88;;;16.88;;
51556;SDS011;38766;53.194;5.532;2023-05-08T01:17:02;18.92;;;16.92;;
51556;SDS011;38766;53.194;5.532;2023-05-08T01:22:41;18.70;;;16.60;;
51556;SDS011;38766;53.194;5.532;2023-05-08T01:25:56;20.05;;;17.80;;
51556;SDS011;38766;53.194;5.532;2023-05-08T01:31:57;17.85;;;16.05;;
51556;SDS011;38766;53.194;5.532;2023-05-08T01:34:23;19.05;;;17.05;;
51556;SDS011;38766;53.194;5.532;2023-05-08T01:36:52;18.98;;;16.98;;
51556;SDS011;38766;53.194;5.532;2023-05-08T01:42:10;19.00;;;17.02;;
51556;SDS011;38766;53.194;5.532;2023-05-08T01:44:42;19.35;;;17.35;;
51556;SDS011;38766;53.194;5.532;2023-05-08T01:47:12;18.92;;;16.90;;
51556;SDS011;38766;53.194;5.532;2023-05-08T01:49:42;21.17;;;18.33;;
51556;SDS011;38766;53.194;5.532;2023-05-08T01:52:27;18.30;;;16.38;;
51556;SDS011;38766;53.194;5.532;2023-05-08T01:55:03;20.13;;;16.60;;
51556;SDS011;38766;53.194;5.532;2023-05-08T01:57:34;19.52;;;17.42;;
51556;SDS011;38766;53.194;5.532;2023-05-08T02:00:06;20.63;;;17.40;;
51556;SDS011;38766;53.194;5.532;2023-05-08T02:02:33;19.40;;;17.38;;
51556;SDS011;38766;53.194;5.532;2023-05-08T02:05:00;19.65;;;17.58;;
51556;SDS011;38766;53.194;5.532;2023-05-08T02:07:29;21.00;;;17.67;;
51556;SDS011;38766;53.194;5.532;2023-05-08T02:09:55;22.90;;;18.17;;
51556;SDS011;38766;53.194;5.532;2023-05-08T02:12:23;23.13;;;17.67;;
51556;SDS011;38766;53.194;5.532;2023-05-08T02:14:50;19.88;;;17.73;;
51556;SDS011;38766;53.194;5.532;2023-05-08T02:17:17;20.48;;;17.63;;
51556;SDS011;38766;53.194;5.532;2023-05-08T02:19:45;19.13;;;17.13;;
51556;SDS011;38766;53.194;5.532;2023-05-08T02:22:12;21.25;;;17.13;;
51556;SDS011;38766;53.194;5.532;2023-05-08T02:24:39;20.02;;;17.25;;
51556;SDS011;38766;53.194;5.532;2023-05-08T02:27:06;19.98;;;17.10;;
51556;SDS011;38766;53.194;5.532;2023-05-08T02:29:37;19.50;;;17.40;;
51556;SDS011;38766;53.194;5.532;2023-05-08T02:32:03;21.27;;;17.33;;
51556;SDS011;38766;53.194;5.532;2023-05-08T02:34:32;20.60;;;17.73;;
51556;SDS011;38766;53.194;5.532;2023-05-08T02:37:00;20.58;;;18.02;;
51556;SDS011;38766;53.194;5.532;2023-05-08T02:39:28;22.80;;;17.98;;
51556;SDS011;38766;53.194;5.532;2023-05-08T02:41:55;22.70;;;18.25;;
51556;SDS011;38766;53.194;5.532;2023-05-08T02:44:21;21.52;;;18.30;;
51556;SDS011;38766;53.194;5.532;2023-05-08T02:47:04;22.50;;;18.60;;
51556;SDS011;38766;53.194;5.532;2023-05-08T02:52:24;21.17;;;17.63;;
51556;SDS011;38766;53.194;5.532;2023-05-08T02:57:42;23.42;;;17.45;;
51556;SDS011;38766;53.194;5.532;2023-05-08T03:00:16;20.63;;;18.05;;
51556;SDS011;38766;53.194;5.532;2023-05-08T03:02:49;20.38;;;18.17;;
51556;SDS011;38766;53.194;5.532;2023-05-08T03:05:19;24.95;;;19.52;;
51556;SDS011;38766;53.194;5.532;2023-05-08T03:07:53;19.15;;;16.80;;
51556;SDS011;38766;53.194;5.532;2023-05-08T03:10:25;21.75;;;17.92;;
51556;SDS011;38766;53.194;5.532;2023-05-08T03:12:55;21.38;;;18.05;;
51556;SDS011;38766;53.194;5.532;2023-05-08T03:15:36;20.00;;;17.88;;
51556;SDS011;38766;53.194;5.532;2023-05-08T03:18:09;19.73;;;17.13;;
51556;SDS011;38766;53.194;5.532;2023-05-08T03:20:39;20.90;;;18.20;;
51556;SDS011;38766;53.194;5.532;2023-05-08T03:23:08;20.20;;;18.00;;
51556;SDS011;38766;53.194;5.532;2023-05-08T03:25:35;20.55;;;18.13;;
51556;SDS011;38766;53.194;5.532;2023-05-08T03:28:03;22.33;;;18.60;;
51556;SDS011;38766;53.194;5.532;2023-05-08T03:30:30;21.95;;;18.33;;
51556;SDS011;38766;53.194;5.532;2023-05-08T03:33:00;20.10;;;17.20;;
51556;SDS011;38766;53.194;5.532;2023-05-08T03:35:28;21.33;;;17.80;;
51556;SDS011;38766;53.194;5.532;2023-05-08T03:37:55;22.55;;;18.50;;
51556;SDS011;38766;53.194;5.532;2023-05-08T03:40:22;22.10;;;18.98;;
51556;SDS011;38766;53.194;5.532;2023-05-08T03:42:47;21.60;;;18.58;;
51556;SDS011;38766;53.194;5.532;2023-05-08T03:45:14;21.35;;;17.77;;
51556;SDS011;38766;53.194;5.532;2023-05-08T03:47:41;20.88;;;18.35;;
51556;SDS011;38766;53.194;5.532;2023-05-08T03:50:08;21.90;;;18.25;;
51556;SDS011;38766;53.194;5.532;2023-05-08T03:52:34;21.92;;;17.60;;
51556;SDS011;38766;53.194;5.532;2023-05-08T03:55:00;24.33;;;19.38;;
51556;SDS011;38766;53.194;5.532;2023-05-08T03:57:27;22.73;;;18.83;;
51556;SDS011;38766;53.194;5.532;2023-05-08T04:00:10;23.27;;;18.65;;
51556;SDS011;38766;53.194;5.532;2023-05-08T04:02:46;21.48;;;18.88;;
51556;SDS011;38766;53.194;5.532;2023-05-08T04:05:19;22.30;;;18.73;;
51556;SDS011;38766;53.194;5.532;2023-05-08T04:07:52;23.35;;;18.60;;
51556;SDS011;38766;53.194;5.532;2023-05-08T04:10:37;23.48;;;18.63;;
51556;SDS011;38766;53.194;5.532;2023-05-08T04:13:12;22.13;;;18.33;;
51556;SDS011;38766;53.194;5.532;2023-05-08T04:15:43;22.92;;;18.48;;
51556;SDS011;38766;53.194;5.532;2023-05-08T04:18:16;24.92;;;18.67;;
51556;SDS011;38766;53.194;5.532;2023-05-08T04:20:47;22.15;;;18.27;;
51556;SDS011;38766;53.194;5.532;2023-05-08T04:23:16;22.13;;;17.95;;
51556;SDS011;38766;53.194;5.532;2023-05-08T04:25:44;23.45;;;18.85;;
51556;SDS011;38766;53.194;5.532;2023-05-08T04:28:11;22.23;;;18.50;;
51556;SDS011;38766;53.194;5.532;2023-05-08T04:30:38;22.40;;;18.65;;
51556;SDS011;38766;53.194;5.532;2023-05-08T04:33:04;24.10;;;18.73;;
51556;SDS011;38766;53.194;5.532;2023-05-08T04:35:32;22.13;;;19.00;;
51556;SDS011;38766;53.194;5.532;2023-05-08T04:37:58;24.05;;;19.80;;
51556;SDS011;38766;53.194;5.532;2023-05-08T04:40:24;21.77;;;18.25;;
51556;SDS011;38766;53.194;5.532;2023-05-08T04:42:50;23.67;;;19.17;;
51556;SDS011;38766;53.194;5.532;2023-05-08T04:45:15;25.23;;;20.05;;
51556;SDS011;38766;53.194;5.532;2023-05-08T04:47:41;23.38;;;18.77;;
51556;SDS011;38766;53.194;5.532;2023-05-08T04:50:07;22.83;;;19.17;;
51556;SDS011;38766;53.194;5.532;2023-05-08T04:52:34;23.83;;;19.75;;
51556;SDS011;38766;53.194;5.532;2023-05-08T04:54:59;23.20;;;18.98;;
51556;SDS011;38766;53.194;5.532;2023-05-08T04:57:25;22.25;;;19.58;;
51556;SDS011;38766;53.194;5.532;2023-05-08T04:59:50;24.65;;;19.33;;
51556;SDS011;38766;53.194;5.532;2023-05-08T05:02:16;21.23;;;18.58;;
51556;SDS011;38766;53.194;5.532;2023-05-08T05:04:42;23.90;;;19.27;;
51556;SDS011;38766;53.194;5.532;2023-05-08T05:07:07;25.92;;;19.45;;
51556;SDS011;38766;53.194;5.532;2023-05-08T05:09:33;24.75;;;19.50;;
51556;SDS011;38766;53.194;5.532;2023-05-08T05:12:01;24.50;;;19.05;;
51556;SDS011;38766;53.194;5.532;2023-05-08T05:14:28;22.05;;;19.15;;
51556;SDS011;38766;53.194;5.532;2023-05-08T05:16:53;24.73;;;19.63;;
51556;SDS011;38766;53.194;5.532;2023-05-08T05:19:19;24.15;;;19.60;;
51556;SDS011;38766;53.194;5.532;2023-05-08T05:21:44;25.80;;;20.23;;
51556;SDS011;38766;53.194;5.532;2023-05-08T05:24:10;24.15;;;19.23;;
51556;SDS011;38766;53.194;5.532;2023-05-08T05:26:36;23.38;;;19.00;;
51556;SDS011;38766;53.194;5.532;2023-05-08T05:29:02;22.17;;;18.40;;
51556;SDS011;38766;53.194;5.532;2023-05-08T05:31:28;23.15;;;19.05;;
51556;SDS011;38766;53.194;5.532;2023-05-08T05:33:54;23.70;;;19.58;;
51556;SDS011;38766;53.194;5.532;2023-05-08T05:36:20;25.92;;;19.95;;
51556;SDS011;38766;53.194;5.532;2023-05-08T05:38:46;24.40;;;19.88;;
51556;SDS011;38766;53.194;5.532;2023-05-08T05:41:12;23.92;;;19.65;;
51556;SDS011;38766;53.194;5.532;2023-05-08T05:43:38;24.05;;;20.35;;
51556;SDS011;38766;53.194;5.532;2023-05-08T05:46:04;24.70;;;19.52;;
51556;SDS011;38766;53.194;5.532;2023-05-08T05:48:33;23.13;;;19.38;;
51556;SDS011;38766;53.194;5.532;2023-05-08T05:50:58;24.35;;;20.10;;
51556;SDS011;38766;53.194;5.532;2023-05-08T05:53:24;24.33;;;19.90;;
51556;SDS011;38766;53.194;5.532;2023-05-08T05:55:50;21.30;;;18.02;;
51556;SDS011;38766;53.194;5.532;2023-05-08T05:58:17;20.70;;;18.45;;
51556;SDS011;38766;53.194;5.532;2023-05-08T06:00:42;23.00;;;18.60;;
51556;SDS011;38766;53.194;5.532;2023-05-08T06:03:08;23.42;;;20.15;;
51556;SDS011;38766;53.194;5.532;2023-05-08T06:05:35;22.17;;;18.67;;
51556;SDS011;38766;53.194;5.532;2023-05-08T06:08:01;24.58;;;19.30;;
51556;SDS011;38766;53.194;5.532;2023-05-08T06:10:27;22.00;;;18.88;;
51556;SDS011;38766;53.194;5.532;2023-05-08T06:12:52;22.77;;;18.85;;
51556;SDS011;38766;53.194;5.532;2023-05-08T06:15:18;23.55;;;19.98;;
51556;SDS011;38766;53.194;5.532;2023-05-08T06:17:45;22.02;;;18.35;;
51556;SDS011;38766;53.194;5.532;2023-05-08T06:20:10;23.30;;;18.88;;
51556;SDS011;38766;53.194;5.532;2023-05-08T06:22:36;24.13;;;18.33;;
51556;SDS011;38766;53.194;5.532;2023-05-08T06:25:03;24.58;;;19.80;;
51556;SDS011;38766;53.194;5.532;2023-05-08T06:27:31;23.00;;;18.95;;
51556;SDS011;38766;53.194;5.532;2023-05-08T06:29:58;21.75;;;18.63;;
51556;SDS011;38766;53.194;5.532;2023-05-08T06:32:23;22.45;;;19.35;;
51556;SDS011;38766;53.194;5.532;2023-05-08T06:34:49;22.02;;;18.88;;
51556;SDS011;38766;53.194;5.532;2023-05-08T06:37:15;22.00;;;17.77;;
51556;SDS011;38766;53.194;5.532;2023-05-08T06:39:40;21.55;;;17.63;;
51556;SDS011;38766;53.194;5.532;2023-05-08T06:42:06;20.33;;;17.83;;
51556;SDS011;38766;53.194;5.532;2023-05-08T06:44:32;20.58;;;18.38;;
51556;SDS011;38766;53.194;5.532;2023-05-08T06:47:00;20.77;;;17.70;;
51556;SDS011;38766;53.194;5.532;2023-05-08T06:49:26;22.23;;;17.42;;
51556;SDS011;38766;53.194;5.532;2023-05-08T06:51:52;21.25;;;18.20;;
51556;SDS011;38766;53.194;5.532;2023-05-08T06:54:17;19.80;;;17.45;;
51556;SDS011;38766;53.194;5.532;2023-05-08T06:56:43;20.50;;;17.90;;
51556;SDS011;38766;53.194;5.532;2023-05-08T06:59:09;19.20;;;16.80;;
51556;SDS011;38766;53.194;5.532;2023-05-08T07:01:35;20.42;;;17.55;;
51556;SDS011;38766;53.194;5.532;2023-05-08T07:04:04;20.30;;;17.95;;
51556;SDS011;38766;53.194;5.532;2023-05-08T07:06:30;21.05;;;17.05;;
51556;SDS011;38766;53.194;5.532;2023-05-08T07:08:56;20.98;;;18.27;;
51556;SDS011;38766;53.194;5.532;2023-05-08T07:11:22;19.77;;;17.65;;
51556;SDS011;38766;53.194;5.532;2023-05-08T07:13:47;19.58;;;17.35;;
51556;SDS011;38766;53.194;5.532;2023-05-08T07:16:13;19.55;;;17.45;;
51556;SDS011;38766;53.194;5.532;2023-05-08T07:18:40;19.02;;;17.05;;
51556;SDS011;38766;53.194;5.532;2023-05-08T07:21:05;21.02;;;17.17;;
51556;SDS011;38766;53.194;5.532;2023-05-08T07:23:31;18.25;;;16.35;;
51556;SDS011;38766;53.194;5.532;2023-05-08T07:25:57;19.42;;;16.98;;
51556;SDS011;38766;53.194;5.532;2023-05-08T07:28:23;18.92;;;16.52;;
51556;SDS011;38766;53.194;5.532;2023-05-08T07:30:49;23.02;;;17.23;;
51556;SDS011;38766;53.194;5.532;2023-05-08T07:33:15;18.15;;;16.25;;
51556;SDS011;38766;53.194;5.532;2023-05-08T07:35:41;18.73;;;16.75;;
51556;SDS011;38766;53.194;5.532;2023-05-08T07:38:07;20.10;;;17.67;;
51556;SDS011;38766;53.194;5.532;2023-05-08T07:40:33;18.42;;;16.50;;
51556;SDS011;38766;53.194;5.532;2023-05-08T07:42:59;18.67;;;16.67;;
51556;SDS011;38766;53.194;5.532;2023-05-08T07:45:25;19.20;;;16.55;;
51556;SDS011;38766;53.194;5.532;2023-05-08T07:47:51;20.38;;;17.65;;
51556;SDS011;38766;53.194;5.532;2023-05-08T07:50:18;17.85;;;15.95;;
51556;SDS011;38766;53.194;5.532;2023-05-08T07:52:44;18.52;;;16.60;;
51556;SDS011;38766;53.194;5.532;2023-05-08T07:55:10;18.40;;;16.50;;
51556;SDS011;38766;53.194;5.532;2023-05-08T07:57:37;18.85;;;16.77;;
51556;SDS011;38766;53.194;5.532;2023-05-08T08:00:04;19.05;;;17.02;;
51556;SDS011;38766;53.194;5.532;2023-05-08T08:02:31;18.15;;;16.27;;
51556;SDS011;38766;53.194;5.532;2023-05-08T08:04:59;20.00;;;17.42;;
51556;SDS011;38766;53.194;5.532;2023-05-08T08:07:25;19.23;;;17.23;;
51556;SDS011;38766;53.194;5.532;2023-05-08T08:09:51;19.67;;;17.58;;
51556;SDS011;38766;53.194;5.532;2023-05-08T08:12:16;18.10;;;16.27;;
51556;SDS011;38766;53.194;5.532;2023-05-08T08:14:42;18.45;;;16.60;;
51556;SDS011;38766;53.194;5.532;2023-05-08T08:17:08;20.08;;;17.98;;
51556;SDS011;38766;53.194;5.532;2023-05-08T08:19:33;18.83;;;16.85;;
51556;SDS011;38766;53.194;5.532;2023-05-08T08:22:02;21.95;;;17.00;;
51556;SDS011;38766;53.194;5.532;2023-05-08T08:24:28;19.45;;;17.35;;
51556;SDS011;38766;53.194;5.532;2023-05-08T08:26:54;18.67;;;16.70;;
51556;SDS011;38766;53.194;5.532;2023-05-08T08:29:20;19.95;;;17.55;;
51556;SDS011;38766;53.194;5.532;2023-05-08T08:31:45;19.75;;;17.70;;
51556;SDS011;38766;53.194;5.532;2023-05-08T08:34:11;19.88;;;17.80;;
51556;SDS011;38766;53.194;5.532;2023-05-08T08:36:37;18.70;;;16.70;;
51556;SDS011;38766;53.194;5.532;2023-05-08T08:39:03;18.73;;;16.83;;
51556;SDS011;38766;53.194;5.532;2023-05-08T08:41:29;19.10;;;17.20;;
51556;SDS011;38766;53.194;5.532;2023-05-08T08:43:55;18.67;;;16.67;;
51556;SDS011;38766;53.194;5.532;2023-05-08T08:46:25;20.42;;;17.27;;
51556;SDS011;38766;53.194;5.532;2023-05-08T08:48:52;19.42;;;17.52;;
51556;SDS011;38766;53.194;5.532;2023-05-08T08:54:03;20.67;;;17.20;;
51556;SDS011;38766;53.194;5.532;2023-05-08T08:56:33;20.60;;;18.35;;
51556;SDS011;38766;53.194;5.532;2023-05-08T08:59:02;20.63;;;18.52;;
51556;SDS011;38766;53.194;5.532;2023-05-08T09:01:30;20.85;;;18.75;;
51556;SDS011;38766;53.194;5.532;2023-05-08T09:04:00;22.63;;;20.27;;
51556;SDS011;38766;53.194;5.532;2023-05-08T09:06:26;20.23;;;17.45;;
51556;SDS011;38766;53.194;5.532;2023-05-08T09:08:56;19.55;;;17.65;;
51556;SDS011;38766;53.194;5.532;2023-05-08T09:11:25;20.33;;;18.33;;
51556;SDS011;38766;53.194;5.532;2023-05-08T09:13:51;19.70;;;17.70;;
51556;SDS011;38766;53.194;5.532;2023-05-08T09:16:18;20.13;;;18.13;;
51556;SDS011;38766;53.194;5.532;2023-05-08T09:18:47;21.13;;;18.92;;
51556;SDS011;38766;53.194;5.532;2023-05-08T09:21:12;22.38;;;19.98;;
51556;SDS011;38766;53.194;5.532;2023-05-08T09:23:57;20.60;;;18.50;;
51556;SDS011;38766;53.194;5.532;2023-05-08T09:26:31;19.73;;;17.63;;
51556;SDS011;38766;53.194;5.532;2023-05-08T09:31:34;19.50;;;17.50;;
51556;SDS011;38766;53.194;5.532;2023-05-08T09:34:01;19.70;;;17.70;;
51556;SDS011;38766;53.194;5.532;2023-05-08T09:36:26;19.77;;;17.77;;
51556;SDS011;38766;53.194;5.532;2023-05-08T09:38:52;20.05;;;18.00;;
51556;SDS011;38766;53.194;5.532;2023-05-08T09:41:18;18.48;;;16.55;;
51556;SDS011;38766;53.194;5.532;2023-05-08T09:43:59;20.30;;;18.17;;
51556;SDS011;38766;53.194;5.532;2023-05-08T09:46:29;20.15;;;18.05;;
51556;SDS011;38766;53.194;5.532;2023-05-08T09:48:56;20.13;;;18.02;;
51556;SDS011;38766;53.194;5.532;2023-05-08T09:51:23;20.30;;;18.13;;
51556;SDS011;38766;53.194;5.532;2023-05-08T09:53:50;19.65;;;17.52;;
51556;SDS011;38766;53.194;5.532;2023-05-08T09:56:30;20.35;;;17.98;;
51556;SDS011;38766;53.194;5.532;2023-05-08T09:59:03;21.00;;;17.98;;
51556;SDS011;38766;53.194;5.532;2023-05-08T10:01:45;19.52;;;17.52;;
51556;SDS011;38766;53.194;5.532;2023-05-08T10:04:12;20.08;;;18.08;;
51556;SDS011;38766;53.194;5.532;2023-05-08T10:06:39;20.02;;;18.02;;
51556;SDS011;38766;53.194;5.532;2023-05-08T10:09:09;19.98;;;18.05;;
51556;SDS011;38766;53.194;5.532;2023-05-08T10:11:47;20.48;;;18.38;;
51556;SDS011;38766;53.194;5.532;2023-05-08T10:14:17;20.63;;;18.55;;
51556;SDS011;38766;53.194;5.532;2023-05-08T10:16:50;20.23;;;18.13;;
51556;SDS011;38766;53.194;5.532;2023-05-08T10:19:18;22.33;;;20.02;;
51556;SDS011;38766;53.194;5.532;2023-05-08T10:21:46;19.65;;;17.65;;
51556;SDS011;38766;53.194;5.532;2023-05-08T10:24:17;21.73;;;19.42;;
51556;SDS011;38766;53.194;5.532;2023-05-08T10:27:07;19.73;;;17.73;;
51556;SDS011;38766;53.194;5.532;2023-05-08T10:32:14;21.85;;;19.65;;
51556;SDS011;38766;53.194;5.532;2023-05-08T10:34:44;21.52;;;19.27;;
51556;SDS011;38766;53.194;5.532;2023-05-08T10:37:16;22.25;;;19.63;;
51556;SDS011;38766;53.194;5.532;2023-05-08T10:39:41;23.38;;;21.02;;
51556;SDS011;38766;53.194;5.532;2023-05-08T10:42:09;21.90;;;19.65;;
51556;SDS011;38766;53.194;5.532;2023-05-08T10:44:37;22.92;;;20.52;;
51556;SDS011;38766;53.194;5.532;2023-05-08T10:47:16;23.17;;;20.80;;
51556;SDS011;38766;53.194;5.532;2023-05-08T10:55:36;24.95;;;22.25;;
51556;SDS011;38766;53.194;5.532;2023-05-08T10:58:04;23.30;;;20.80;;
51556;SDS011;38766;53.194;5.532;2023-05-08T11:03:16;24.88;;;22.30;;
51556;SDS011;38766;53.194;5.532;2023-05-08T11:05:47;27.67;;;23.38;;
51556;SDS011;38766;53.194;5.532;2023-05-08T11:08:19;25.10;;;22.45;;
51556;SDS011;38766;53.194;5.532;2023-05-08T11:13:27;28.30;;;23.83;;
51556;SDS011;38766;53.194;5.532;2023-05-08T11:15:55;28.17;;;25.20;;
51556;SDS011;38766;53.194;5.532;2023-05-08T11:18:21;26.52;;;23.73;;
51556;SDS011;38766;53.194;5.532;2023-05-08T11:20:55;25.52;;;22.77;;
51556;SDS011;38766;53.194;5.532;2023-05-08T11:23:26;26.35;;;23.63;;
51556;SDS011;38766;53.194;5.532;2023-05-08T11:28:25;25.83;;;22.92;;
51556;SDS011;38766;53.194;5.532;2023-05-08T11:30:52;26.75;;;23.73;;
51556;SDS011;38766;53.194;5.532;2023-05-08T11:33:19;28.25;;;24.40;;
51556;SDS011;38766;53.194;5.532;2023-05-08T11:35:49;28.63;;;25.48;;
51556;SDS011;38766;53.194;5.532;2023-05-08T11:46:16;27.38;;;24.20;;
51556;SDS011;38766;53.194;5.532;2023-05-08T11:48:44;30.48;;;25.67;;
51556;SDS011;38766;53.194;5.532;2023-05-08T11:51:10;29.40;;;24.45;;
51556;SDS011;38766;53.194;5.532;2023-05-08T11:53:40;26.95;;;24.17;;
51556;SDS011;38766;53.194;5.532;2023-05-08T11:56:07;29.67;;;26.48;;
51556;SDS011;38766;53.194;5.532;2023-05-08T11:58:33;31.08;;;26.63;;
51556;SDS011;38766;53.194;5.532;2023-05-08T12:01:00;29.70;;;26.40;;
51556;SDS011;38766;53.194;5.532;2023-05-08T12:03:26;31.52;;;27.77;;
51556;SDS011;38766;53.194;5.532;2023-05-08T12:05:56;30.75;;;26.30;;
51556;SDS011;38766;53.194;5.532;2023-05-08T12:08:22;29.45;;;26.25;;
51556;SDS011;38766;53.194;5.532;2023-05-08T12:10:49;29.77;;;25.17;;
51556;SDS011;38766;53.194;5.532;2023-05-08T12:13:24;30.50;;;25.98;;
51556;SDS011;38766;53.194;5.532;2023-05-08T12:15:52;29.00;;;25.92;;
51556;SDS011;38766;53.194;5.532;2023-05-08T12:18:19;32.88;;;27.08;;
51556;SDS011;38766;53.194;5.532;2023-05-08T12:20:50;30.35;;;24.45;;
51556;SDS011;38766;53.194;5.532;2023-05-08T12:23:21;29.08;;;25.98;;
51556;SDS011;38766;53.194;5.532;2023-05-08T12:25:53;31.17;;;24.50;;
51556;SDS011;38766;53.194;5.532;2023-05-08T12:28:19;28.75;;;25.65;;
51556;SDS011;38766;53.194;5.532;2023-05-08T12:30:45;29.05;;;25.23;;
51556;SDS011;38766;53.194;5.532;2023-05-08T12:33:11;29.17;;;25.15;;
51556;SDS011;38766;53.194;5.532;2023-05-08T12:35:38;26.80;;;24.00;;
51556;SDS011;38766;53.194;5.532;2023-05-08T12:38:05;26.40;;;22.25;;
51556;SDS011;38766;53.194;5.532;2023-05-08T12:40:32;27.23;;;24.25;;
51556;SDS011;38766;53.194;5.532;2023-05-08T12:43:09;24.15;;;21.25;;
51556;SDS011;38766;53.194;5.532;2023-05-08T12:45:38;22.77;;;20.13;;
51556;SDS011;38766;53.194;5.532;2023-05-08T12:48:06;19.85;;;17.27;;
51556;SDS011;38766;53.194;5.532;2023-05-08T12:50:34;23.85;;;21.23;;
51556;SDS011;38766;53.194;5.532;2023-05-08T12:53:07;25.80;;;22.15;;
51556;SDS011;38766;53.194;5.532;2023-05-08T12:55:41;23.98;;;21.38;;
51556;SDS011;38766;53.194;5.532;2023-05-08T12:58:17;25.13;;;22.23;;
51556;SDS011;38766;53.194;5.532;2023-05-08T13:00:45;24.63;;;21.00;;
51556;SDS011;38766;53.194;5.532;2023-05-08T13:03:13;23.92;;;20.70;;
51556;SDS011;38766;53.194;5.532;2023-05-08T13:05:49;22.02;;;19.70;;
51556;SDS011;38766;53.194;5.532;2023-05-08T13:08:15;25.98;;;22.00;;
51556;SDS011;38766;53.194;5.532;2023-05-08T13:10:42;23.92;;;21.42;;
51556;SDS011;38766;53.194;5.532;2023-05-08T13:13:11;26.13;;;22.77;;
51556;SDS011;38766;53.194;5.532;2023-05-08T13:15:37;22.30;;;19.88;;
51556;SDS011;38766;53.194;5.532;2023-05-08T13:18:03;22.73;;;20.17;;
51556;SDS011;38766;53.194;5.532;2023-05-08T13:20:31;21.23;;;18.77;;
51556;SDS011;38766;53.194;5.532;2023-05-08T13:22:57;22.60;;;20.23;;
51556;SDS011;38766;53.194;5.532;2023-05-08T13:25:23;22.05;;;19.70;;
51556;SDS011;38766;53.194;5.532;2023-05-08T13:27:48;25.05;;;21.00;;
51556;SDS011;38766;53.194;5.532;2023-05-08T13:30:14;25.73;;;22.90;;
51556;SDS011;38766;53.194;5.532;2023-05-08T13:32:40;24.17;;;21.60;;
51556;SDS011;38766;53.194;5.532;2023-05-08T13:35:06;24.33;;;21.02;;
51556;SDS011;38766;53.194;5.532;2023-05-08T13:37:32;22.60;;;20.02;;
51556;SDS011;38766;53.194;5.532;2023-05-08T13:39:57;24.70;;;22.13;;
51556;SDS011;38766;53.194;5.532;2023-05-08T13:42:23;25.42;;;22.75;;
51556;SDS011;38766;53.194;5.532;2023-05-08T13:44:49;25.63;;;22.10;;
51556;SDS011;38766;53.194;5.532;2023-05-08T13:47:14;25.08;;;22.50;;
51556;SDS011;38766;53.194;5.532;2023-05-08T13:49:40;23.13;;;20.60;;
51556;SDS011;38766;53.194;5.532;2023-05-08T13:52:10;27.80;;;22.75;;
51556;SDS011;38766;53.194;5.532;2023-05-08T13:54:36;28.05;;;24.75;;
51556;SDS011;38766;53.194;5.532;2023-05-08T13:57:02;25.85;;;21.83;;
51556;SDS011;38766;53.194;5.532;2023-05-08T13:59:27;26.55;;;23.75;;
51556;SDS011;38766;53.194;5.532;2023-05-08T14:01:55;24.33;;;21.60;;
51556;SDS011;38766;53.194;5.532;2023-05-08T14:04:21;25.83;;;22.55;;
51556;SDS011;38766;53.194;5.532;2023-05-08T14:06:46;25.58;;;22.08;;
51556;SDS011;38766;53.194;5.532;2023-05-08T14:09:12;24.70;;;22.10;;
51556;SDS011;38766;53.194;5.532;2023-05-08T14:11:38;28.52;;;24.27;;
51556;SDS011;38766;53.194;5.532;2023-05-08T14:14:03;33.70;;;29.27;;
51556;SDS011;38766;53.194;5.532;2023-05-08T14:16:29;32.45;;;28.65;;
51556;SDS011;38766;53.194;5.532;2023-05-08T14:18:55;31.00;;;27.65;;
51556;SDS011;38766;53.194;5.532;2023-05-08T14:21:20;33.05;;;27.98;;
51556;SDS011;38766;53.194;5.532;2023-05-08T14:23:46;35.92;;;28.23;;
51556;SDS011;38766;53.194;5.532;2023-05-08T14:26:11;36.55;;;28.88;;
51556;SDS011;38766;53.194;5.532;2023-05-08T14:28:37;36.28;;;31.13;;
51556;SDS011;38766;53.194;5.532;2023-05-08T14:31:03;33.35;;;27.90;;
51556;SDS011;38766;53.194;5.532;2023-05-08T14:33:28;33.33;;;28.65;;
51556;SDS011;38766;53.194;5.532;2023-05-08T14:35:54;34.83;;;28.55;;
51556;SDS011;38766;53.194;5.532;2023-05-08T14:38:20;36.00;;;29.85;;
51556;SDS011;38766;53.194;5.532;2023-05-08T14:40:48;35.75;;;29.83;;
51556;SDS011;38766;53.194;5.532;2023-05-08T14:43:18;34.70;;;28.40;;
51556;SDS011;38766;53.194;5.532;2023-05-08T14:45:44;38.35;;;31.70;;
51556;SDS011;38766;53.194;5.532;2023-05-08T14:48:10;40.53;;;32.53;;
51556;SDS011;38766;53.194;5.532;2023-05-08T14:50:36;41.65;;;32.63;;
51556;SDS011;38766;53.194;5.532;2023-05-08T14:53:01;46.10;;;35.53;;
51556;SDS011;38766;53.194;5.532;2023-05-08T14:55:29;46.00;;;34.33;;
51556;SDS011;38766;53.194;5.532;2023-05-08T14:57:55;42.90;;;33.45;;
51556;SDS011;38766;53.194;5.532;2023-05-08T15:00:21;39.83;;;30.88;;
51556;SDS011;38766;53.194;5.532;2023-05-08T15:02:47;38.53;;;30.00;;
51556;SDS011;38766;53.194;5.532;2023-05-08T15:05:13;38.47;;;30.92;;
51556;SDS011;38766;53.194;5.532;2023-05-08T15:07:39;41.25;;;29.90;;
51556;SDS011;38766;53.194;5.532;2023-05-08T15:10:14;45.05;;;31.67;;
51556;SDS011;38766;53.194;5.532;2023-05-08T15:12:40;46.13;;;32.58;;
51556;SDS011;38766;53.194;5.532;2023-05-08T15:15:05;43.05;;;32.33;;